Nearby METAR Reports

 

KIND - Indianapolis, Indiana, USA
Distance from station: SW 6mi, 9km
Updated: May 25 2019 9:54am
Mostly Cloudy
Mostly Cloudy
 Wind from SW
Wind: SW 17 mph , 28 km/h, Gust: 26 mph , 43 km/h
Temperature: 81°F , 27°C
Heat Index: 83°F , 28°C
Dew Point: 66°F , 19°C
Humidity: 62%
Barometer: 30.02 inHg , 1016.6 hPa
Clouds: Mostly Cloudy
Visibility: 10 miles , 16 km
Cloud details: Mostly Cloudy 25000 ft
2019/05/25 13:54 KIND 251354Z 23015G23KT 10SM BKN250 27/19 A3002 RMK AO2 SLP157 T02670194 $
KEYE - Indianapolis, Indiana, USA
Distance from station: NW 5mi, 8km
Updated: May 25 2019 9:53am
Clear
Clear
 Wind from WSW
Wind: WSW 10 mph , 17 km/h, Gust: 22 mph , 35 km/h
Temperature: 81°F , 27°C
Heat Index: 83°F , 28°C
Dew Point: 66°F , 19°C
Humidity: 62%
Barometer: 30.01 inHg , 1016.3 hPa
Clouds: Clear
Visibility: 10 miles , 16 km
2019/05/25 13:53 KEYE 251353Z AUTO 24009G19KT 10SM CLR 27/19 A3001 RMK AO2 SLP155 T02670194
 
KTYQ - Indianapolis Exc, Indiana, USA
Distance from station: N 17mi, 28km
Updated: May 25 2019 9:55am
Clear
Clear
 Wind from SSW
Wind: SSW 14 mph , 22 km/h, Gust: 22 mph , 35 km/h
Temperature: 79°F , 26°C
Dew Point: 68°F , 20°C
Humidity: 70%
Barometer: 30.02 inHg , 1016.6 hPa
Clouds: Clear
Visibility: 10 miles , 16 km
2019/05/25 13:55 KTYQ 251355Z AUTO 21012G19KT 10SM CLR 26/20 A3002 RMK AO2 T02570204
KGEZ - Shelbyville, Indiana, USA
Distance from station: ESE 27mi, 43km
Updated: May 25 2019 9:53am
Clear
Clear
 Wind from WSW
Wind: WSW 16 mph , 26 km/h, Gust: 22 mph , 35 km/h
Temperature: 81°F , 27°C
Heat Index: 83°F , 28°C
Dew Point: 66°F , 19°C
Humidity: 62%
Barometer: 30.03 inHg , 1016.9 hPa
Clouds: Clear
Visibility: 10 miles , 16 km
2019/05/25 13:53 KGEZ 251353Z AUTO 24014G19KT 10SM CLR 27/19 A3003 RMK AO2 SLP163 T02720194
 
KAID - Anderson Municip, Indiana, USA
Distance from station: NE 40mi, 64km
Updated: May 25 2019 9:55am
Clear
Clear
 Wind from SW
Wind: SW 14 mph , 22 km/h, Gust: 18 mph , 30 km/h
Temperature: 79°F , 26°C
Dew Point: 66°F , 19°C
Humidity: 65%
Barometer: 30.03 inHg , 1016.9 hPa
Clouds: Clear
Visibility: 10 miles , 16 km
2019/05/25 13:55 KAID 251355Z AUTO 22012G16KT 10SM CLR 26/19 A3003 RMK AO2 T02610190
KBAK - Columbus/Balkala, Indiana, USA
Distance from station: SSE 40mi, 64km
Updated: May 25 2019 9:45am
Clear
Clear
 Wind from WSW
Wind: WSW 12 mph , 19 km/h
Temperature: 77°F , 25°C
Dew Point: 66°F , 19°C
Humidity: 69%
Barometer: 30.06 inHg , 1017.9 hPa
Clouds: Clear
Visibility: 10 miles , 16 km
2019/05/25 13:45 KBAK 251345Z 24010KT 10SM SKC 25/19 A3006
 
KBMG - Bloomington, Indiana, USA
Distance from station: SSW 48mi, 78km
Updated: May 25 2019 9:53am
Clear
Clear
 Wind from SW
Wind: SW 9 mph , 15 km/h
Temperature: 81°F , 27°C
Heat Index: 85°F , 29°C
Dew Point: 70°F , 21°C
Humidity: 70%
Barometer: 30.05 inHg , 1017.6 hPa
Clouds: Clear
Visibility: 10 miles , 16 km
2019/05/25 13:53 KBMG 251353Z 22008KT 10SM CLR 27/21 A3005 RMK AO2 SLP167 T02670206
KOKK - Kokomo, Indiana, USA
Distance from station: N 53mi, 85km
Updated: May 25 2019 9:56am
Clear
Clear
 Wind from WSW
Wind: WSW 18 mph , 30 km/h
Temperature: 79°F , 26°C
Dew Point: 70°F , 21°C
Humidity: 74%
Barometer: 30.00 inHg , 1015.9 hPa
Clouds: Clear
Visibility: 10 miles , 16 km
2019/05/25 13:56 KOKK 251356Z AUTO 25016KT 10SM CLR 26/21 A3000 RMK AO2 SLP154 T02610206